sensor_id;sensor_type;location;lat;lon;timestamp;temperature;humidity
30889;DHT22;51092;50.874;7.024;2023-12-20T00:00:26;7.60;99.90
30889;DHT22;51092;50.874;7.024;2023-12-20T00:01:29;7.60;99.90
30889;DHT22;51092;50.874;7.024;2023-12-20T00:02:30;7.70;99.90
30889;DHT22;51092;50.874;7.024;2023-12-20T00:03:32;7.70;99.90
30889;DHT22;51092;50.874;7.024;2023-12-20T00:04:33;7.70;99.90
30889;DHT22;51092;50.874;7.024;2023-12-20T00:05:36;7.70;99.90
30889;DHT22;51092;50.874;7.024;2023-12-20T00:06:38;7.70;99.90
30889;DHT22;51092;50.874;7.024;2023-12-20T00:07:40;7.70;99.90
30889;DHT22;51092;50.874;7.024;2023-12-20T00:08:41;7.70;99.90
30889;DHT22;51092;50.874;7.024;2023-12-20T00:09:42;7.70;99.90
30889;DHT22;51092;50.874;7.024;2023-12-20T00:10:44;7.70;99.90
30889;DHT22;51092;50.874;7.024;2023-12-20T00:11:46;7.70;99.90
30889;DHT22;51092;50.874;7.024;2023-12-20T00:12:48;7.70;99.90
30889;DHT22;51092;50.874;7.024;2023-12-20T00:13:51;7.70;99.90
30889;DHT22;51092;50.874;7.024;2023-12-20T00:14:52;7.70;99.90
30889;DHT22;51092;50.874;7.024;2023-12-20T00:15:54;7.70;99.90
30889;DHT22;51092;50.874;7.024;2023-12-20T00:16:56;7.70;99.90
30889;DHT22;51092;50.874;7.024;2023-12-20T00:17:58;7.70;99.90
30889;DHT22;51092;50.874;7.024;2023-12-20T00:18:59;7.70;99.90
30889;DHT22;51092;50.874;7.024;2023-12-20T00:20:02;7.70;99.90
30889;DHT22;51092;50.874;7.024;2023-12-20T00:21:03;7.70;99.90
30889;DHT22;51092;50.874;7.024;2023-12-20T00:22:06;7.70;99.90
30889;DHT22;51092;50.874;7.024;2023-12-20T00:23:07;7.80;99.90
30889;DHT22;51092;50.874;7.024;2023-12-20T00:24:09;7.70;99.90
30889;DHT22;51092;50.874;7.024;2023-12-20T00:25:11;7.70;99.90
30889;DHT22;51092;50.874;7.024;2023-12-20T00:26:13;7.70;99.90
30889;DHT22;51092;50.874;7.024;2023-12-20T00:27:16;7.70;99.90
30889;DHT22;51092;50.874;7.024;2023-12-20T00:28:19;7.80;99.90
30889;DHT22;51092;50.874;7.024;2023-12-20T00:29:21;7.70;99.90
30889;DHT22;51092;50.874;7.024;2023-12-20T00:30:23;7.70;99.90
30889;DHT22;51092;50.874;7.024;2023-12-20T00:31:24;7.80;99.90
30889;DHT22;51092;50.874;7.024;2023-12-20T00:32:26;7.80;99.90
30889;DHT22;51092;50.874;7.024;2023-12-20T00:33:28;7.80;99.90
30889;DHT22;51092;50.874;7.024;2023-12-20T00:34:30;7.80;99.90
30889;DHT22;51092;50.874;7.024;2023-12-20T00:35:31;7.80;99.90
30889;DHT22;51092;50.874;7.024;2023-12-20T00:36:34;7.80;99.90
30889;DHT22;51092;50.874;7.024;2023-12-20T00:37:35;7.80;99.90
30889;DHT22;51092;50.874;7.024;2023-12-20T00:38:37;7.80;99.90
30889;DHT22;51092;50.874;7.024;2023-12-20T00:39:38;7.80;99.90
30889;DHT22;51092;50.874;7.024;2023-12-20T00:40:41;7.80;99.90
30889;DHT22;51092;50.874;7.024;2023-12-20T00:41:42;7.80;99.90
30889;DHT22;51092;50.874;7.024;2023-12-20T00:42:44;7.80;99.90
30889;DHT22;51092;50.874;7.024;2023-12-20T00:43:49;7.80;99.90
30889;DHT22;51092;50.874;7.024;2023-12-20T00:44:51;7.80;99.90
30889;DHT22;51092;50.874;7.024;2023-12-20T00:45:52;7.80;99.90
30889;DHT22;51092;50.874;7.024;2023-12-20T00:46:57;7.80;99.90
30889;DHT22;51092;50.874;7.024;2023-12-20T00:47:58;7.80;99.90
30889;DHT22;51092;50.874;7.024;2023-12-20T00:49:01;7.90;99.90
30889;DHT22;51092;50.874;7.024;2023-12-20T00:50:02;7.90;99.90
30889;DHT22;51092;50.874;7.024;2023-12-20T00:51:05;7.90;99.90
30889;DHT22;51092;50.874;7.024;2023-12-20T00:52:07;7.90;99.90
30889;DHT22;51092;50.874;7.024;2023-12-20T00:53:09;7.80;99.90
30889;DHT22;51092;50.874;7.024;2023-12-20T00:54:10;7.80;99.90
30889;DHT22;51092;50.874;7.024;2023-12-20T00:55:13;7.80;99.90
30889;DHT22;51092;50.874;7.024;2023-12-20T00:56:14;7.80;99.90
30889;DHT22;51092;50.874;7.024;2023-12-20T00:57:17;7.80;99.90
30889;DHT22;51092;50.874;7.024;2023-12-20T00:58:18;7.80;99.90
30889;DHT22;51092;50.874;7.024;2023-12-20T00:59:22;7.80;99.90
30889;DHT22;51092;50.874;7.024;2023-12-20T01:00:23;7.80;99.90
30889;DHT22;51092;50.874;7.024;2023-12-20T01:01:25;7.80;99.90
30889;DHT22;51092;50.874;7.024;2023-12-20T01:02:26;7.80;99.90
30889;DHT22;51092;50.874;7.024;2023-12-20T01:03:29;7.80;99.90
30889;DHT22;51092;50.874;7.024;2023-12-20T01:04:31;7.80;99.90
30889;DHT22;51092;50.874;7.024;2023-12-20T01:05:32;7.80;99.90
30889;DHT22;51092;50.874;7.024;2023-12-20T01:06:35;7.70;99.90
30889;DHT22;51092;50.874;7.024;2023-12-20T01:07:36;7.70;99.90
30889;DHT22;51092;50.874;7.024;2023-12-20T01:08:39;7.70;99.90
30889;DHT22;51092;50.874;7.024;2023-12-20T01:09:40;7.70;99.90
30889;DHT22;51092;50.874;7.024;2023-12-20T01:10:42;7.70;99.90
30889;DHT22;51092;50.874;7.024;2023-12-20T01:11:43;7.70;99.90
30889;DHT22;51092;50.874;7.024;2023-12-20T01:12:47;7.70;99.90
30889;DHT22;51092;50.874;7.024;2023-12-20T01:13:48;7.70;99.90
30889;DHT22;51092;50.874;7.024;2023-12-20T01:14:52;7.70;99.90
30889;DHT22;51092;50.874;7.024;2023-12-20T01:15:53;7.70;99.90
30889;DHT22;51092;50.874;7.024;2023-12-20T01:16:56;7.60;99.90
30889;DHT22;51092;50.874;7.024;2023-12-20T01:17:57;7.70;99.90
30889;DHT22;51092;50.874;7.024;2023-12-20T01:19:00;7.60;99.90
30889;DHT22;51092;50.874;7.024;2023-12-20T01:20:01;7.60;99.90
30889;DHT22;51092;50.874;7.024;2023-12-20T01:21:04;7.60;99.90
30889;DHT22;51092;50.874;7.024;2023-12-20T01:22:05;7.60;99.90
30889;DHT22;51092;50.874;7.024;2023-12-20T01:23:06;7.60;99.90
30889;DHT22;51092;50.874;7.024;2023-12-20T01:24:09;7.60;99.90
30889;DHT22;51092;50.874;7.024;2023-12-20T01:25:10;7.60;99.90
30889;DHT22;51092;50.874;7.024;2023-12-20T01:26:12;7.50;99.90
30889;DHT22;51092;50.874;7.024;2023-12-20T01:27:14;7.50;99.90
30889;DHT22;51092;50.874;7.024;2023-12-20T01:28:16;7.50;99.90
30889;DHT22;51092;50.874;7.024;2023-12-20T01:29:17;7.40;99.90
30889;DHT22;51092;50.874;7.024;2023-12-20T01:30:21;7.40;99.90
30889;DHT22;51092;50.874;7.024;2023-12-20T01:31:22;7.30;99.90
30889;DHT22;51092;50.874;7.024;2023-12-20T01:32:24;7.30;99.90
30889;DHT22;51092;50.874;7.024;2023-12-20T01:33:25;7.20;99.90
30889;DHT22;51092;50.874;7.024;2023-12-20T01:34:27;7.20;99.90
30889;DHT22;51092;50.874;7.024;2023-12-20T01:35:29;7.20;99.90
30889;DHT22;51092;50.874;7.024;2023-12-20T01:36:30;7.20;99.90
30889;DHT22;51092;50.874;7.024;2023-12-20T01:37:32;7.20;99.90
30889;DHT22;51092;50.874;7.024;2023-12-20T01:38:34;7.20;99.90
30889;DHT22;51092;50.874;7.024;2023-12-20T01:39:35;7.20;99.90
30889;DHT22;51092;50.874;7.024;2023-12-20T01:40:37;7.20;99.90
30889;DHT22;51092;50.874;7.024;2023-12-20T01:41:39;7.20;99.90
30889;DHT22;51092;50.874;7.024;2023-12-20T01:42:41;7.20;99.90
30889;DHT22;51092;50.874;7.024;2023-12-20T01:43:42;7.20;99.90
30889;DHT22;51092;50.874;7.024;2023-12-20T01:44:44;7.20;99.90
30889;DHT22;51092;50.874;7.024;2023-12-20T01:45:47;7.30;99.90
30889;DHT22;51092;50.874;7.024;2023-12-20T01:46:50;7.30;99.90
30889;DHT22;51092;50.874;7.024;2023-12-20T01:47:51;7.30;99.90
30889;DHT22;51092;50.874;7.024;2023-12-20T01:48:53;7.30;99.90
30889;DHT22;51092;50.874;7.024;2023-12-20T01:49:55;7.30;99.90
30889;DHT22;51092;50.874;7.024;2023-12-20T01:50:57;7.30;99.90
30889;DHT22;51092;50.874;7.024;2023-12-20T01:51:59;7.30;99.90
30889;DHT22;51092;50.874;7.024;2023-12-20T01:53:01;7.20;99.90
30889;DHT22;51092;50.874;7.024;2023-12-20T01:54:04;7.20;99.90
30889;DHT22;51092;50.874;7.024;2023-12-20T01:55:05;7.20;99.90
30889;DHT22;51092;50.874;7.024;2023-12-20T01:56:14;7.20;99.90
30889;DHT22;51092;50.874;7.024;2023-12-20T01:57:16;7.20;99.90
30889;DHT22;51092;50.874;7.024;2023-12-20T01:58:18;7.20;99.90
30889;DHT22;51092;50.874;7.024;2023-12-20T01:59:20;7.20;99.90
30889;DHT22;51092;50.874;7.024;2023-12-20T02:00:22;7.10;99.90
30889;DHT22;51092;50.874;7.024;2023-12-20T02:01:25;7.10;99.90
30889;DHT22;51092;50.874;7.024;2023-12-20T02:02:29;7.10;99.90
30889;DHT22;51092;50.874;7.024;2023-12-20T02:03:31;7.10;99.90
30889;DHT22;51092;50.874;7.024;2023-12-20T02:04:33;7.00;99.90
30889;DHT22;51092;50.874;7.024;2023-12-20T02:05:35;7.00;99.90
30889;DHT22;51092;50.874;7.024;2023-12-20T02:06:37;7.00;99.90
30889;DHT22;51092;50.874;7.024;2023-12-20T02:07:42;6.90;99.90
30889;DHT22;51092;50.874;7.024;2023-12-20T02:08:43;6.90;99.90
30889;DHT22;51092;50.874;7.024;2023-12-20T02:09:45;6.90;99.90
30889;DHT22;51092;50.874;7.024;2023-12-20T02:10:47;6.90;99.90
30889;DHT22;51092;50.874;7.024;2023-12-20T02:11:49;6.80;99.90
30889;DHT22;51092;50.874;7.024;2023-12-20T02:12:51;6.80;99.90
30889;DHT22;51092;50.874;7.024;2023-12-20T02:13:53;6.70;99.90
30889;DHT22;51092;50.874;7.024;2023-12-20T02:14:54;6.70;99.90
30889;DHT22;51092;50.874;7.024;2023-12-20T02:15:57;6.70;99.90
30889;DHT22;51092;50.874;7.024;2023-12-20T02:16:59;6.70;99.90
30889;DHT22;51092;50.874;7.024;2023-12-20T02:18:01;6.60;99.90
30889;DHT22;51092;50.874;7.024;2023-12-20T02:19:02;6.60;99.90
30889;DHT22;51092;50.874;7.024;2023-12-20T02:20:04;6.60;99.90
30889;DHT22;51092;50.874;7.024;2023-12-20T02:21:07;6.60;99.90
30889;DHT22;51092;50.874;7.024;2023-12-20T02:22:10;6.50;99.90
30889;DHT22;51092;50.874;7.024;2023-12-20T02:23:12;6.50;99.90
30889;DHT22;51092;50.874;7.024;2023-12-20T02:24:13;6.50;99.90
30889;DHT22;51092;50.874;7.024;2023-12-20T02:25:15;6.50;99.90
30889;DHT22;51092;50.874;7.024;2023-12-20T02:26:17;6.40;99.90
30889;DHT22;51092;50.874;7.024;2023-12-20T02:27:19;6.40;99.90
30889;DHT22;51092;50.874;7.024;2023-12-20T02:28:21;6.40;99.90
30889;DHT22;51092;50.874;7.024;2023-12-20T02:29:24;6.40;99.90
30889;DHT22;51092;50.874;7.024;2023-12-20T02:30:26;6.40;99.90
30889;DHT22;51092;50.874;7.024;2023-12-20T02:31:28;6.30;99.90
30889;DHT22;51092;50.874;7.024;2023-12-20T02:32:30;6.30;99.90
30889;DHT22;51092;50.874;7.024;2023-12-20T02:33:31;6.30;99.90
30889;DHT22;51092;50.874;7.024;2023-12-20T02:34:34;6.30;99.90
30889;DHT22;51092;50.874;7.024;2023-12-20T02:35:35;6.20;99.90
30889;DHT22;51092;50.874;7.024;2023-12-20T02:36:37;6.20;99.90
30889;DHT22;51092;50.874;7.024;2023-12-20T02:37:40;6.20;99.90
30889;DHT22;51092;50.874;7.024;2023-12-20T02:38:42;6.20;99.90
30889;DHT22;51092;50.874;7.024;2023-12-20T02:39:44;6.20;99.90
30889;DHT22;51092;50.874;7.024;2023-12-20T02:40:45;6.10;99.90
30889;DHT22;51092;50.874;7.024;2023-12-20T02:41:47;6.10;99.90
30889;DHT22;51092;50.874;7.024;2023-12-20T02:42:49;6.10;99.90
30889;DHT22;51092;50.874;7.024;2023-12-20T02:43:51;6.10;99.90
30889;DHT22;51092;50.874;7.024;2023-12-20T02:44:52;6.10;99.90
30889;DHT22;51092;50.874;7.024;2023-12-20T02:45:54;6.10;99.90
30889;DHT22;51092;50.874;7.024;2023-12-20T02:46:55;6.10;99.90
30889;DHT22;51092;50.874;7.024;2023-12-20T02:47:58;6.00;99.90
30889;DHT22;51092;50.874;7.024;2023-12-20T02:48:59;6.00;99.90
30889;DHT22;51092;50.874;7.024;2023-12-20T02:50:01;6.00;99.90
30889;DHT22;51092;50.874;7.024;2023-12-20T02:51:03;6.00;99.90
30889;DHT22;51092;50.874;7.024;2023-12-20T02:52:05;6.00;99.90
30889;DHT22;51092;50.874;7.024;2023-12-20T02:53:08;6.00;99.90
30889;DHT22;51092;50.874;7.024;2023-12-20T02:54:10;6.00;99.90
30889;DHT22;51092;50.874;7.024;2023-12-20T02:55:14;6.00;99.90
30889;DHT22;51092;50.874;7.024;2023-12-20T02:56:16;6.00;99.90
30889;DHT22;51092;50.874;7.024;2023-12-20T02:57:17;6.00;99.90
30889;DHT22;51092;50.874;7.024;2023-12-20T02:58:20;6.00;99.90
30889;DHT22;51092;50.874;7.024;2023-12-20T02:59:21;6.00;99.90
30889;DHT22;51092;50.874;7.024;2023-12-20T03:00:22;6.00;99.90
30889;DHT22;51092;50.874;7.024;2023-12-20T03:01:25;5.90;99.90
30889;DHT22;51092;50.874;7.024;2023-12-20T03:02:26;5.90;99.90
30889;DHT22;51092;50.874;7.024;2023-12-20T03:03:28;5.90;99.90
30889;DHT22;51092;50.874;7.024;2023-12-20T03:04:29;5.90;99.90
30889;DHT22;51092;50.874;7.024;2023-12-20T03:05:32;5.90;99.90
30889;DHT22;51092;50.874;7.024;2023-12-20T03:06:34;6.00;99.90
30889;DHT22;51092;50.874;7.024;2023-12-20T03:07:36;6.00;99.90
30889;DHT22;51092;50.874;7.024;2023-12-20T03:08:39;6.00;99.90
30889;DHT22;51092;50.874;7.024;2023-12-20T03:09:42;6.00;99.90
30889;DHT22;51092;50.874;7.024;2023-12-20T03:10:43;6.00;99.90
30889;DHT22;51092;50.874;7.024;2023-12-20T03:11:45;6.00;99.90
30889;DHT22;51092;50.874;7.024;2023-12-20T03:12:47;6.00;99.90
30889;DHT22;51092;50.874;7.024;2023-12-20T03:13:49;6.00;99.90
30889;DHT22;51092;50.874;7.024;2023-12-20T03:14:50;6.00;99.90
30889;DHT22;51092;50.874;7.024;2023-12-20T03:15:51;6.00;99.90
30889;DHT22;51092;50.874;7.024;2023-12-20T03:16:54;6.00;99.90
30889;DHT22;51092;50.874;7.024;2023-12-20T03:17:55;6.00;99.90
30889;DHT22;51092;50.874;7.024;2023-12-20T03:18:57;6.00;99.90
30889;DHT22;51092;50.874;7.024;2023-12-20T03:19:58;6.00;99.90
30889;DHT22;51092;50.874;7.024;2023-12-20T03:21:01;6.00;99.90
30889;DHT22;51092;50.874;7.024;2023-12-20T03:22:02;6.00;99.90
30889;DHT22;51092;50.874;7.024;2023-12-20T03:23:04;6.10;99.90
30889;DHT22;51092;50.874;7.024;2023-12-20T03:24:07;6.10;99.90
30889;DHT22;51092;50.874;7.024;2023-12-20T03:25:09;6.10;99.90
30889;DHT22;51092;50.874;7.024;2023-12-20T03:26:11;6.10;99.90
30889;DHT22;51092;50.874;7.024;2023-12-20T03:27:13;6.10;99.90
30889;DHT22;51092;50.874;7.024;2023-12-20T03:28:14;6.10;99.90
30889;DHT22;51092;50.874;7.024;2023-12-20T03:29:17;6.10;99.90
30889;DHT22;51092;50.874;7.024;2023-12-20T03:30:18;6.10;99.90
30889;DHT22;51092;50.874;7.024;2023-12-20T03:31:21;6.10;99.90
30889;DHT22;51092;50.874;7.024;2023-12-20T03:32:22;6.10;99.90
30889;DHT22;51092;50.874;7.024;2023-12-20T03:33:25;6.10;99.90
30889;DHT22;51092;50.874;7.024;2023-12-20T03:34:26;6.10;99.90
30889;DHT22;51092;50.874;7.024;2023-12-20T03:35:28;6.10;99.90
30889;DHT22;51092;50.874;7.024;2023-12-20T03:36:30;6.10;99.90
30889;DHT22;51092;50.874;7.024;2023-12-20T03:37:31;6.10;99.90
30889;DHT22;51092;50.874;7.024;2023-12-20T03:38:33;6.10;99.90
30889;DHT22;51092;50.874;7.024;2023-12-20T03:39:36;6.20;99.90
30889;DHT22;51092;50.874;7.024;2023-12-20T03:40:38;6.20;99.90
30889;DHT22;51092;50.874;7.024;2023-12-20T03:41:40;6.20;99.90
30889;DHT22;51092;50.874;7.024;2023-12-20T03:42:42;6.20;99.90
30889;DHT22;51092;50.874;7.024;2023-12-20T03:43:43;6.20;99.90
30889;DHT22;51092;50.874;7.024;2023-12-20T03:44:46;6.20;99.90
30889;DHT22;51092;50.874;7.024;2023-12-20T03:45:47;6.30;99.90
30889;DHT22;51092;50.874;7.024;2023-12-20T03:46:48;6.20;99.90
30889;DHT22;51092;50.874;7.024;2023-12-20T03:47:51;6.20;99.90
30889;DHT22;51092;50.874;7.024;2023-12-20T03:48:56;6.30;99.90
30889;DHT22;51092;50.874;7.024;2023-12-20T03:49:58;6.30;99.90
30889;DHT22;51092;50.874;7.024;2023-12-20T03:50:59;6.30;99.90
30889;DHT22;51092;50.874;7.024;2023-12-20T03:52:01;6.30;99.90
30889;DHT22;51092;50.874;7.024;2023-12-20T03:53:03;6.30;99.90
30889;DHT22;51092;50.874;7.024;2023-12-20T03:54:05;6.30;99.90
30889;DHT22;51092;50.874;7.024;2023-12-20T03:55:08;6.30;99.90
30889;DHT22;51092;50.874;7.024;2023-12-20T03:56:10;6.30;99.90
30889;DHT22;51092;50.874;7.024;2023-12-20T03:57:12;6.30;99.90
30889;DHT22;51092;50.874;7.024;2023-12-20T03:58:13;6.30;99.90
30889;DHT22;51092;50.874;7.024;2023-12-20T03:59:15;6.30;99.90
30889;DHT22;51092;50.874;7.024;2023-12-20T04:00:17;6.30;99.90
30889;DHT22;51092;50.874;7.024;2023-12-20T04:01:18;6.30;99.90
30889;DHT22;51092;50.874;7.024;2023-12-20T04:02:20;6.30;99.90
30889;DHT22;51092;50.874;7.024;2023-12-20T04:03:22;6.30;99.90
30889;DHT22;51092;50.874;7.024;2023-12-20T04:04:24;6.30;99.90
30889;DHT22;51092;50.874;7.024;2023-12-20T04:05:25;6.30;99.90
30889;DHT22;51092;50.874;7.024;2023-12-20T04:06:28;6.30;99.90
30889;DHT22;51092;50.874;7.024;2023-12-20T04:07:29;6.30;99.90
30889;DHT22;51092;50.874;7.024;2023-12-20T04:08:30;6.30;99.90
30889;DHT22;51092;50.874;7.024;2023-12-20T04:09:33;6.30;99.90
30889;DHT22;51092;50.874;7.024;2023-12-20T04:10:35;6.30;99.90
30889;DHT22;51092;50.874;7.024;2023-12-20T04:11:38;6.30;99.90
30889;DHT22;51092;50.874;7.024;2023-12-20T04:12:39;6.30;99.90
30889;DHT22;51092;50.874;7.024;2023-12-20T04:13:42;6.30;99.90
30889;DHT22;51092;50.874;7.024;2023-12-20T04:14:43;6.30;99.90
30889;DHT22;51092;50.874;7.024;2023-12-20T04:15:45;6.30;99.90
30889;DHT22;51092;50.874;7.024;2023-12-20T04:16:47;6.30;99.90
30889;DHT22;51092;50.874;7.024;2023-12-20T04:17:49;6.30;99.90
30889;DHT22;51092;50.874;7.024;2023-12-20T04:18:50;6.30;99.90
30889;DHT22;51092;50.874;7.024;2023-12-20T04:19:53;6.30;99.90
30889;DHT22;51092;50.874;7.024;2023-12-20T04:20:54;6.30;99.90
30889;DHT22;51092;50.874;7.024;2023-12-20T04:21:56;6.20;99.90
30889;DHT22;51092;50.874;7.024;2023-12-20T04:22:57;6.20;99.90
30889;DHT22;51092;50.874;7.024;2023-12-20T04:24:00;6.30;99.90
30889;DHT22;51092;50.874;7.024;2023-12-20T04:25:01;6.30;99.90
30889;DHT22;51092;50.874;7.024;2023-12-20T04:26:05;6.30;99.90
30889;DHT22;51092;50.874;7.024;2023-12-20T04:27:06;6.30;99.90
30889;DHT22;51092;50.874;7.024;2023-12-20T04:28:08;6.20;99.90
30889;DHT22;51092;50.874;7.024;2023-12-20T04:29:10;6.30;99.90
30889;DHT22;51092;50.874;7.024;2023-12-20T04:30:11;6.30;99.90
30889;DHT22;51092;50.874;7.024;2023-12-20T04:31:13;6.30;99.90
30889;DHT22;51092;50.874;7.024;2023-12-20T04:32:15;6.30;99.90
30889;DHT22;51092;50.874;7.024;2023-12-20T04:33:17;6.40;99.90
30889;DHT22;51092;50.874;7.024;2023-12-20T04:34:19;6.40;99.90
30889;DHT22;51092;50.874;7.024;2023-12-20T04:35:20;6.40;99.90
30889;DHT22;51092;50.874;7.024;2023-12-20T04:36:23;6.40;99.90
30889;DHT22;51092;50.874;7.024;2023-12-20T04:37:26;6.50;99.90
30889;DHT22;51092;50.874;7.024;2023-12-20T04:38:27;6.50;99.90
30889;DHT22;51092;50.874;7.024;2023-12-20T04:39:29;6.50;99.90
30889;DHT22;51092;50.874;7.024;2023-12-20T04:40:31;6.60;99.90
30889;DHT22;51092;50.874;7.024;2023-12-20T04:41:34;6.60;99.90
30889;DHT22;51092;50.874;7.024;2023-12-20T04:42:35;6.60;99.90
30889;DHT22;51092;50.874;7.024;2023-12-20T04:43:38;6.60;99.90
30889;DHT22;51092;50.874;7.024;2023-12-20T04:44:39;6.60;99.90
30889;DHT22;51092;50.874;7.024;2023-12-20T04:45:41;6.50;99.90
30889;DHT22;51092;50.874;7.024;2023-12-20T04:46:43;6.50;99.90
30889;DHT22;51092;50.874;7.024;2023-12-20T04:47:45;6.50;99.90
30889;DHT22;51092;50.874;7.024;2023-12-20T04:48:47;6.50;99.90
30889;DHT22;51092;50.874;7.024;2023-12-20T04:49:50;6.50;99.90
30889;DHT22;51092;50.874;7.024;2023-12-20T04:50:51;6.50;99.90
30889;DHT22;51092;50.874;7.024;2023-12-20T04:51:53;6.50;99.90
30889;DHT22;51092;50.874;7.024;2023-12-20T04:52:55;6.50;99.90
30889;DHT22;51092;50.874;7.024;2023-12-20T04:53:57;6.50;99.90
30889;DHT22;51092;50.874;7.024;2023-12-20T04:54:58;6.50;99.90
30889;DHT22;51092;50.874;7.024;2023-12-20T04:56:00;6.50;99.90
30889;DHT22;51092;50.874;7.024;2023-12-20T04:57:04;6.50;99.90
30889;DHT22;51092;50.874;7.024;2023-12-20T04:58:05;6.50;99.90
30889;DHT22;51092;50.874;7.024;2023-12-20T04:59:09;6.40;99.90
30889;DHT22;51092;50.874;7.024;2023-12-20T05:00:11;6.40;99.90
30889;DHT22;51092;50.874;7.024;2023-12-20T05:01:15;6.40;99.90
30889;DHT22;51092;50.874;7.024;2023-12-20T05:02:16;6.40;99.90
30889;DHT22;51092;50.874;7.024;2023-12-20T05:03:19;6.40;99.90
30889;DHT22;51092;50.874;7.024;2023-12-20T05:04:20;6.40;99.90
30889;DHT22;51092;50.874;7.024;2023-12-20T05:05:22;6.40;99.90
30889;DHT22;51092;50.874;7.024;2023-12-20T05:06:23;6.40;99.90
30889;DHT22;51092;50.874;7.024;2023-12-20T05:07:26;6.40;99.90
30889;DHT22;51092;50.874;7.024;2023-12-20T05:08:27;6.40;99.90
30889;DHT22;51092;50.874;7.024;2023-12-20T05:09:29;6.40;99.90
30889;DHT22;51092;50.874;7.024;2023-12-20T05:10:31;6.30;99.90
30889;DHT22;51092;50.874;7.024;2023-12-20T05:11:34;6.40;99.90
30889;DHT22;51092;50.874;7.024;2023-12-20T05:12:37;6.40;99.90
30889;DHT22;51092;50.874;7.024;2023-12-20T05:13:40;6.30;99.90
30889;DHT22;51092;50.874;7.024;2023-12-20T05:14:41;6.30;99.90
30889;DHT22;51092;50.874;7.024;2023-12-20T05:15:43;6.30;99.90
30889;DHT22;51092;50.874;7.024;2023-12-20T05:16:44;6.30;99.90
30889;DHT22;51092;50.874;7.024;2023-12-20T05:17:46;6.30;99.90
30889;DHT22;51092;50.874;7.024;2023-12-20T05:18:48;6.30;99.90
30889;DHT22;51092;50.874;7.024;2023-12-20T05:19:50;6.30;99.90
30889;DHT22;51092;50.874;7.024;2023-12-20T05:20:52;6.30;99.90
30889;DHT22;51092;50.874;7.024;2023-12-20T05:21:54;6.30;99.90
30889;DHT22;51092;50.874;7.024;2023-12-20T05:22:56;6.30;99.90
30889;DHT22;51092;50.874;7.024;2023-12-20T05:23:57;6.30;99.90
30889;DHT22;51092;50.874;7.024;2023-12-20T05:25:00;6.30;99.90
30889;DHT22;51092;50.874;7.024;2023-12-20T05:26:01;6.30;99.90
30889;DHT22;51092;50.874;7.024;2023-12-20T05:27:03;6.30;99.90
30889;DHT22;51092;50.874;7.024;2023-12-20T05:28:06;6.30;99.90
30889;DHT22;51092;50.874;7.024;2023-12-20T05:29:10;6.30;99.90
30889;DHT22;51092;50.874;7.024;2023-12-20T05:30:11;6.30;99.90
30889;DHT22;51092;50.874;7.024;2023-12-20T05:31:14;6.30;99.90
30889;DHT22;51092;50.874;7.024;2023-12-20T05:32:16;6.30;99.90
30889;DHT22;51092;50.874;7.024;2023-12-20T05:33:18;6.30;99.90
30889;DHT22;51092;50.874;7.024;2023-12-20T05:34:20;6.30;99.90
30889;DHT22;51092;50.874;7.024;2023-12-20T05:35:22;6.40;99.90
30889;DHT22;51092;50.874;7.024;2023-12-20T05:36:24;6.40;99.90
30889;DHT22;51092;50.874;7.024;2023-12-20T05:37:26;6.40;99.90
30889;DHT22;51092;50.874;7.024;2023-12-20T05:38:27;6.40;99.90
30889;DHT22;51092;50.874;7.024;2023-12-20T05:39:30;6.40;99.90
30889;DHT22;51092;50.874;7.024;2023-12-20T05:40:31;6.40;99.90
30889;DHT22;51092;50.874;7.024;2023-12-20T05:41:34;6.40;99.90
30889;DHT22;51092;50.874;7.024;2023-12-20T05:42:35;6.40;99.90
30889;DHT22;51092;50.874;7.024;2023-12-20T05:43:38;6.40;99.90
30889;DHT22;51092;50.874;7.024;2023-12-20T05:44:40;6.40;99.90
30889;DHT22;51092;50.874;7.024;2023-12-20T05:45:41;6.40;99.90
30889;DHT22;51092;50.874;7.024;2023-12-20T05:46:44;6.40;99.90
30889;DHT22;51092;50.874;7.024;2023-12-20T05:47:45;6.40;99.90
30889;DHT22;51092;50.874;7.024;2023-12-20T05:48:47;6.40;99.90
30889;DHT22;51092;50.874;7.024;2023-12-20T05:49:49;6.40;99.90
30889;DHT22;51092;50.874;7.024;2023-12-20T05:50:52;6.40;99.90
30889;DHT22;51092;50.874;7.024;2023-12-20T05:51:53;6.40;99.90
30889;DHT22;51092;50.874;7.024;2023-12-20T05:52:55;6.40;99.90
30889;DHT22;51092;50.874;7.024;2023-12-20T05:53:57;6.30;99.90
30889;DHT22;51092;50.874;7.024;2023-12-20T05:54:59;6.30;99.90
30889;DHT22;51092;50.874;7.024;2023-12-20T05:56:02;6.30;99.90
30889;DHT22;51092;50.874;7.024;2023-12-20T05:57:04;6.40;99.90
30889;DHT22;51092;50.874;7.024;2023-12-20T05:58:06;6.40;99.90
30889;DHT22;51092;50.874;7.024;2023-12-20T05:59:08;6.40;99.90
30889;DHT22;51092;50.874;7.024;2023-12-20T06:00:11;6.40;99.90
30889;DHT22;51092;50.874;7.024;2023-12-20T06:01:14;6.40;99.90
30889;DHT22;51092;50.874;7.024;2023-12-20T06:02:18;6.40;99.90
30889;DHT22;51092;50.874;7.024;2023-12-20T06:03:19;6.40;99.90
30889;DHT22;51092;50.874;7.024;2023-12-20T06:04:21;6.40;99.90
30889;DHT22;51092;50.874;7.024;2023-12-20T06:05:22;6.40;99.90
30889;DHT22;51092;50.874;7.024;2023-12-20T06:06:25;6.30;99.90
30889;DHT22;51092;50.874;7.024;2023-12-20T06:07:26;6.30;99.90
30889;DHT22;51092;50.874;7.024;2023-12-20T06:08:28;6.30;99.90
30889;DHT22;51092;50.874;7.024;2023-12-20T06:09:29;6.40;99.90
30889;DHT22;51092;50.874;7.024;2023-12-20T06:10:32;6.30;99.90
30889;DHT22;51092;50.874;7.024;2023-12-20T06:11:33;6.40;99.90
30889;DHT22;51092;50.874;7.024;2023-12-20T06:12:34;6.40;99.90
30889;DHT22;51092;50.874;7.024;2023-12-20T06:13:37;6.40;99.90
30889;DHT22;51092;50.874;7.024;2023-12-20T06:14:40;6.40;99.90
30889;DHT22;51092;50.874;7.024;2023-12-20T06:15:42;6.40;99.90
30889;DHT22;51092;50.874;7.024;2023-12-20T06:16:43;6.40;99.90
30889;DHT22;51092;50.874;7.024;2023-12-20T06:17:46;6.40;99.90
30889;DHT22;51092;50.874;7.024;2023-12-20T06:18:47;6.40;99.90
30889;DHT22;51092;50.874;7.024;2023-12-20T06:19:49;6.40;99.90
30889;DHT22;51092;50.874;7.024;2023-12-20T06:20:51;6.40;99.90
30889;DHT22;51092;50.874;7.024;2023-12-20T06:21:52;6.40;99.90
30889;DHT22;51092;50.874;7.024;2023-12-20T06:22:54;6.50;99.90
30889;DHT22;51092;50.874;7.024;2023-12-20T06:23:56;6.50;99.90
30889;DHT22;51092;50.874;7.024;2023-12-20T06:24:57;6.50;99.90
30889;DHT22;51092;50.874;7.024;2023-12-20T06:25:59;6.50;99.90
30889;DHT22;51092;50.874;7.024;2023-12-20T06:27:01;6.50;99.90
30889;DHT22;51092;50.874;7.024;2023-12-20T06:28:04;6.50;99.90
30889;DHT22;51092;50.874;7.024;2023-12-20T06:29:05;6.50;99.90
30889;DHT22;51092;50.874;7.024;2023-12-20T06:30:09;6.50;99.90
30889;DHT22;51092;50.874;7.024;2023-12-20T06:31:10;6.50;99.90
30889;DHT22;51092;50.874;7.024;2023-12-20T06:32:12;6.50;99.90
30889;DHT22;51092;50.874;7.024;2023-12-20T06:33:13;6.50;99.90
30889;DHT22;51092;50.874;7.024;2023-12-20T06:34:14;6.50;99.90
30889;DHT22;51092;50.874;7.024;2023-12-20T06:35:15;6.50;99.90
30889;DHT22;51092;50.874;7.024;2023-12-20T06:36:16;6.50;99.90
30889;DHT22;51092;50.874;7.024;2023-12-20T06:37:18;6.50;99.90